Time;durP1;ratioP1;P1;durP2;ratioP2;P2;SDS_P1;SDS_P2;PMS_P1;PMS_P2;Temp;Humidity;BMP_temperature;BMP_pressure;BME280_temperature;BME280_humidity;BME280_pressure;Samples;Min_cycle;Max_cycle;Signal;HPM_P1;HPM_P2
2022/03/11 00:01:09;;;;;;;5.90;5.07;;;;;;;;;;5073305;28;20172;-56
2022/03/11 00:03:35;;;;;;;6.50;5.57;;;;;;;;;;5088144;28;20229;-55
2022/03/11 00:06:01;;;;;;;7.17;5.40;;;;;;;;;;5094755;28;20647;-55
2022/03/11 00:08:28;;;;;;;7.13;5.50;;;;;;;;;;5070312;28;20192;-57
2022/03/11 00:10:54;;;;;;;8.60;5.13;;;;;;;;;;5066671;28;20227;-56
2022/03/11 00:13:20;;;;;;;6.17;5.03;;;;;;;;;;5073210;28;20194;-56
2022/03/11 00:15:47;;;;;;;7.27;5.13;;;;;;;;;;5090022;28;20212;-57
2022/03/11 00:18:13;;;;;;;5.63;4.70;;;;;;;;;;5072738;28;20168;-56
2022/03/11 00:20:39;;;;;;;6.70;5.17;;;;;;;;;;5089192;28;20180;-56
2022/03/11 00:23:05;;;;;;;5.93;4.77;;;;;;;;;;5056079;28;20178;-55
2022/03/11 00:25:32;;;;;;;7.03;5.23;;;;;;;;;;5086727;28;20267;-56
2022/03/11 00:27:59;;;;;;;6.90;5.37;;;;;;;;;;5086064;28;20223;-56
2022/03/11 00:30:26;;;;;;;7.53;5.37;;;;;;;;;;5088029;28;20694;-58
2022/03/11 00:32:52;;;;;;;6.13;5.13;;;;;;;;;;5070607;28;20179;-56
2022/03/11 00:35:20;;;;;;;5.90;4.70;;;;;;;;;;5093016;28;20176;-56
2022/03/11 00:37:47;;;;;;;4.93;4.40;;;;;;;;;;5072953;28;20630;-56
2022/03/11 00:40:13;;;;;;;10.10;5.30;;;;;;;;;;5068874;28;20207;-56
2022/03/11 00:42:43;;;;;;;5.60;4.77;;;;;;;;;;5098905;28;20171;-56
2022/03/11 00:45:10;;;;;;;5.70;4.53;;;;;;;;;;5068682;28;20168;-57
2022/03/11 00:47:36;;;;;;;6.63;5.03;;;;;;;;;;5067646;28;20230;-55
2022/03/11 00:50:04;;;;;;;5.63;5.00;;;;;;;;;;5087627;28;20190;-56
2022/03/11 00:52:31;;;;;;;5.73;4.73;;;;;;;;;;5087070;28;20233;-55
2022/03/11 00:54:57;;;;;;;5.67;4.27;;;;;;;;;;5089196;28;20588;-56
2022/03/11 00:57:23;;;;;;;5.30;4.70;;;;;;;;;;5088213;28;20215;-56
2022/03/11 00:59:49;;;;;;;7.27;5.23;;;;;;;;;;5076932;28;20673;-56
2022/03/11 01:02:17;;;;;;;6.93;4.47;;;;;;;;;;5077274;28;20182;-55
2022/03/11 01:04:43;;;;;;;6.00;4.80;;;;;;;;;;5088179;28;20207;-56
2022/03/11 01:07:09;;;;;;;6.23;5.00;;;;;;;;;;5082842;28;20207;-55
2022/03/11 01:09:35;;;;;;;7.73;5.57;;;;;;;;;;5088381;28;20569;-55
2022/03/11 01:12:01;;;;;;;5.63;4.60;;;;;;;;;;5088792;28;20719;-56
2022/03/11 01:14:27;;;;;;;5.90;4.60;;;;;;;;;;5085732;28;20678;-56
2022/03/11 01:16:53;;;;;;;5.80;5.00;;;;;;;;;;5077799;28;20180;-56
2022/03/11 01:19:20;;;;;;;5.57;4.53;;;;;;;;;;5070847;28;20290;-55
2022/03/11 01:21:46;;;;;;;5.37;4.60;;;;;;;;;;5086033;28;20182;-55
2022/03/11 01:24:13;;;;;;;5.87;4.87;;;;;;;;;;5081828;28;20204;-55
2022/03/11 01:26:39;;;;;;;6.27;5.10;;;;;;;;;;5079003;28;20179;-56
2022/03/11 01:29:06;;;;;;;5.83;4.90;;;;;;;;;;5068388;28;20180;-55
2022/03/11 01:31:32;;;;;;;5.93;4.63;;;;;;;;;;5069802;28;20183;-54
2022/03/11 01:33:58;;;;;;;5.47;4.80;;;;;;;;;;5087498;28;20175;-55
2022/03/11 01:36:24;;;;;;;6.73;4.67;;;;;;;;;;5086026;28;20191;-55
2022/03/11 01:38:50;;;;;;;6.50;4.73;;;;;;;;;;5088008;28;20194;-53
2022/03/11 01:41:16;;;;;;;5.17;4.53;;;;;;;;;;5094439;28;20567;-56
2022/03/11 01:43:53;;;;;;;5.03;4.17;;;;;;;;;;5092605;28;20638;-55
2022/03/11 01:46:19;;;;;;;5.73;4.50;;;;;;;;;;5073517;28;20187;-56
2022/03/11 01:48:45;;;;;;;6.07;4.77;;;;;;;;;;5081422;28;20642;-56
2022/03/11 01:51:11;;;;;;;5.50;4.60;;;;;;;;;;5084171;28;20570;-55
2022/03/11 01:53:37;;;;;;;5.60;4.43;;;;;;;;;;5061018;28;20180;-55
2022/03/11 01:56:04;;;;;;;5.60;4.67;;;;;;;;;;5065227;28;20180;-56
2022/03/11 01:58:31;;;;;;;5.73;4.93;;;;;;;;;;5078874;28;20734;-55
2022/03/11 02:00:58;;;;;;;5.90;4.70;;;;;;;;;;5087693;28;20183;-55
2022/03/11 02:03:24;;;;;;;5.97;5.00;;;;;;;;;;5086567;28;20619;-56
2022/03/11 02:05:50;;;;;;;6.90;5.43;;;;;;;;;;5067097;28;20176;-56
2022/03/11 02:08:16;;;;;;;5.97;4.77;;;;;;;;;;5069442;28;20548;-55
2022/03/11 02:10:43;;;;;;;5.60;4.40;;;;;;;;;;5093811;28;20723;-56
2022/03/11 02:13:09;;;;;;;5.23;4.43;;;;;;;;;;5091142;28;20691;-56
2022/03/11 02:15:35;;;;;;;4.87;4.37;;;;;;;;;;5090003;28;20191;-56
2022/03/11 02:18:01;;;;;;;6.80;5.43;;;;;;;;;;5069932;28;20581;-56
2022/03/11 02:20:28;;;;;;;5.67;4.73;;;;;;;;;;5068591;28;20746;-56
2022/03/11 02:22:56;;;;;;;5.90;4.97;;;;;;;;;;5089928;28;20587;-56
2022/03/11 02:25:22;;;;;;;6.50;4.90;;;;;;;;;;5086966;28;20246;-55
2022/03/11 02:27:49;;;;;;;6.50;4.90;;;;;;;;;;5086836;28;20184;-56
2022/03/11 02:30:17;;;;;;;8.13;6.00;;;;;;;;;;5065966;28;20180;-56
2022/03/11 02:32:43;;;;;;;5.53;4.70;;;;;;;;;;5078270;28;20622;-56
2022/03/11 02:35:10;;;;;;;5.90;4.70;;;;;;;;;;5049631;28;20461;-57
2022/03/11 02:37:36;;;;;;;5.97;4.47;;;;;;;;;;5085317;28;20188;-56
2022/03/11 02:40:03;;;;;;;6.20;4.83;;;;;;;;;;5068891;28;20280;-56
2022/03/11 02:42:30;;;;;;;5.73;4.83;;;;;;;;;;5087121;28;20654;-57
2022/03/11 02:44:59;;;;;;;6.00;4.90;;;;;;;;;;5085949;28;20190;-56
2022/03/11 02:47:25;;;;;;;5.83;4.60;;;;;;;;;;5098320;28;20178;-55
2022/03/11 02:49:51;;;;;;;7.37;5.57;;;;;;;;;;5070245;28;20192;-57
2022/03/11 02:52:18;;;;;;;6.30;4.97;;;;;;;;;;5084867;28;20252;-55
2022/03/11 02:54:44;;;;;;;5.73;5.00;;;;;;;;;;5088780;28;20587;-56
2022/03/11 02:57:10;;;;;;;6.47;5.20;;;;;;;;;;5070713;28;20249;-57
2022/03/11 02:59:36;;;;;;;8.10;5.10;;;;;;;;;;5089410;28;20570;-56
2022/03/11 03:02:02;;;;;;;6.50;4.73;;;;;;;;;;5089800;28;20164;-55
2022/03/11 03:04:28;;;;;;;6.73;5.00;;;;;;;;;;5089716;28;20208;-56
2022/03/11 03:06:55;;;;;;;7.97;5.37;;;;;;;;;;5075093;28;20662;-54
2022/03/11 03:09:21;;;;;;;6.43;4.93;;;;;;;;;;5086533;28;20644;-55
2022/03/11 03:11:48;;;;;;;6.53;5.03;;;;;;;;;;5071939;28;20721;-54
2022/03/11 03:14:14;;;;;;;5.37;4.80;;;;;;;;;;5090146;28;20220;-56
2022/03/11 03:16:41;;;;;;;5.47;4.77;;;;;;;;;;5073175;28;20666;-56
2022/03/11 03:19:07;;;;;;;7.50;5.70;;;;;;;;;;5075794;28;20659;-55
2022/03/11 03:21:34;;;;;;;6.27;5.17;;;;;;;;;;5086367;28;20645;-55
2022/03/11 03:24:01;;;;;;;5.33;4.83;;;;;;;;;;5075551;28;20313;-57
2022/03/11 03:26:27;;;;;;;6.03;5.37;;;;;;;;;;5072436;28;20176;-55
2022/03/11 03:28:53;;;;;;;6.20;5.07;;;;;;;;;;5090196;28;20187;-54
2022/03/11 03:31:21;;;;;;;6.83;4.97;;;;;;;;;;5089504;28;20176;-56
2022/03/11 03:33:48;;;;;;;6.53;5.13;;;;;;;;;;5094786;28;20673;-55
2022/03/11 03:36:15;;;;;;;7.23;5.10;;;;;;;;;;5076039;28;20248;-55
2022/03/11 03:38:41;;;;;;;6.93;5.30;;;;;;;;;;5077465;28;20203;-55
2022/03/11 03:41:08;;;;;;;6.53;5.50;;;;;;;;;;5074064;28;20530;-55
2022/03/11 03:43:34;;;;;;;6.33;5.00;;;;;;;;;;5089506;28;20176;-54
2022/03/11 03:46:00;;;;;;;7.13;5.27;;;;;;;;;;5090464;28;20619;-57
2022/03/11 03:48:26;;;;;;;5.43;4.77;;;;;;;;;;5089489;28;20665;-56
2022/03/11 03:50:52;;;;;;;6.10;5.30;;;;;;;;;;5090129;28;20176;-56
2022/03/11 03:53:19;;;;;;;8.17;6.00;;;;;;;;;;5086777;28;20519;-56
2022/03/11 03:55:45;;;;;;;6.20;5.10;;;;;;;;;;5089884;28;20194;-55
2022/03/11 03:58:11;;;;;;;8.27;5.77;;;;;;;;;;5089021;28;20580;-57
2022/03/11 04:00:37;;;;;;;7.47;6.17;;;;;;;;;;5089073;28;20186;-55
2022/03/11 04:03:03;;;;;;;7.37;5.63;;;;;;;;;;5072522;28;20187;-56
2022/03/11 04:05:29;;;;;;;7.17;5.30;;;;;;;;;;5071294;28;20380;-56
2022/03/11 04:07:56;;;;;;;6.77;5.63;;;;;;;;;;5087555;28;20190;-55
2022/03/11 04:10:22;;;;;;;7.53;5.60;;;;;;;;;;5088963;28;20537;-56
2022/03/11 04:12:49;;;;;;;6.80;5.60;;;;;;;;;;5082783;28;20235;-57
2022/03/11 04:15:16;;;;;;;7.67;5.07;;;;;;;;;;5088720;28;20599;-55
2022/03/11 04:17:42;;;;;;;9.53;6.30;;;;;;;;;;5067472;28;20544;-55
2022/03/11 04:20:08;;;;;;;7.17;5.73;;;;;;;;;;5068565;28;20605;-56
2022/03/11 04:22:45;;;;;;;6.97;5.27;;;;;;;;;;5085433;28;20192;-56
2022/03/11 04:25:12;;;;;;;8.20;5.73;;;;;;;;;;5068815;28;20179;-56
2022/03/11 04:27:38;;;;;;;7.87;5.40;;;;;;;;;;5085001;28;20544;-56
2022/03/11 04:30:04;;;;;;;7.17;5.80;;;;;;;;;;5082686;28;20187;-55
2022/03/11 04:32:31;;;;;;;6.80;4.93;;;;;;;;;;5078039;28;20183;-56
2022/03/11 04:34:57;;;;;;;7.47;5.80;;;;;;;;;;5084273;28;20180;-57
2022/03/11 04:37:23;;;;;;;6.50;5.50;;;;;;;;;;5085155;28;20654;-55
2022/03/11 04:39:49;;;;;;;6.83;5.30;;;;;;;;;;5084125;28;20277;-57
2022/03/11 04:42:15;;;;;;;7.40;5.87;;;;;;;;;;5070329;28;20171;-55
2022/03/11 04:44:41;;;;;;;6.73;5.30;;;;;;;;;;5093287;28;20171;-56
2022/03/11 04:47:07;;;;;;;7.17;5.67;;;;;;;;;;5088678;28;20202;-55
2022/03/11 04:49:34;;;;;;;8.07;6.23;;;;;;;;;;5080981;28;20233;-56
2022/03/11 04:52:00;;;;;;;7.73;5.87;;;;;;;;;;5086287;28;20183;-56
2022/03/11 04:54:26;;;;;;;6.87;6.10;;;;;;;;;;5084834;28;20183;-55
2022/03/11 04:56:52;;;;;;;7.07;5.80;;;;;;;;;;5088311;28;20206;-56
2022/03/11 04:59:19;;;;;;;8.37;6.40;;;;;;;;;;5073957;28;20210;-56
2022/03/11 05:01:45;;;;;;;6.73;5.63;;;;;;;;;;5073474;28;20190;-55
2022/03/11 05:04:11;;;;;;;8.23;6.20;;;;;;;;;;5087186;28;20176;-55
2022/03/11 05:06:38;;;;;;;7.97;6.10;;;;;;;;;;5068565;28;22012;-55
2022/03/11 05:09:05;;;;;;;8.80;6.37;;;;;;;;;;5063298;28;20630;-55
2022/03/11 05:11:31;;;;;;;9.10;6.53;;;;;;;;;;5071127;28;20315;-55
2022/03/11 05:13:57;;;;;;;8.50;6.30;;;;;;;;;;5069441;28;20184;-57
2022/03/11 05:16:24;;;;;;;6.90;5.33;;;;;;;;;;5072558;28;20190;-54
2022/03/11 05:18:53;;;;;;;6.27;5.40;;;;;;;;;;5073519;28;20630;-55
2022/03/11 05:21:20;;;;;;;9.63;6.97;;;;;;;;;;5071229;28;20184;-57
2022/03/11 05:23:46;;;;;;;8.77;6.53;;;;;;;;;;5077594;28;20750;-54
2022/03/11 05:26:24;;;;;;;7.60;6.53;;;;;;;;;;5058308;28;20267;-57
2022/03/11 05:28:55;;;;;;;7.03;5.77;;;;;;;;;;5087473;28;20241;-55
2022/03/11 05:31:21;;;;;;;11.77;7.17;;;;;;;;;;5074514;28;20588;-55
2022/03/11 05:33:48;;;;;;;8.37;6.70;;;;;;;;;;5061588;28;20222;-56
2022/03/11 05:36:15;;;;;;;8.53;7.27;;;;;;;;;;5069106;28;20635;-57
2022/03/11 05:38:41;;;;;;;7.60;6.43;;;;;;;;;;5079457;28;20566;-55
2022/03/11 05:41:07;;;;;;;11.53;7.37;;;;;;;;;;5075593;28;20208;-55
2022/03/11 05:43:33;;;;;;;10.93;7.73;;;;;;;;;;5068312;28;20697;-56
2022/03/11 05:45:59;;;;;;;7.83;7.03;;;;;;;;;;5065103;28;20744;-55
2022/03/11 05:48:26;;;;;;;10.40;7.37;;;;;;;;;;5062821;28;20180;-55
2022/03/11 05:50:52;;;;;;;8.60;7.07;;;;;;;;;;5076809;28;20644;-55
2022/03/11 05:53:18;;;;;;;8.77;6.90;;;;;;;;;;5083050;28;20187;-57
2022/03/11 05:55:44;;;;;;;8.97;7.17;;;;;;;;;;5094942;28;20256;-56
2022/03/11 05:58:10;;;;;;;9.33;7.30;;;;;;;;;;5081484;28;20198;-55
2022/03/11 06:00:36;;;;;;;9.00;8.10;;;;;;;;;;5064289;28;20207;-55
2022/03/11 06:03:02;;;;;;;10.33;8.20;;;;;;;;;;5078624;28;20176;-55
2022/03/11 06:05:29;;;;;;;8.87;6.83;;;;;;;;;;5070087;28;20176;-55
2022/03/11 06:07:55;;;;;;;10.47;8.10;;;;;;;;;;5074590;28;20423;-56
2022/03/11 06:10:21;;;;;;;9.30;6.80;;;;;;;;;;5072093;28;20203;-55
2022/03/11 06:12:47;;;;;;;10.30;7.87;;;;;;;;;;5056308;28;20238;-55
2022/03/11 06:15:14;;;;;;;10.87;7.97;;;;;;;;;;5063534;28;20186;-56
2022/03/11 06:17:41;;;;;;;9.93;8.13;;;;;;;;;;5077569;28;20237;-55
2022/03/11 06:20:08;;;;;;;9.63;7.67;;;;;;;;;;5076304;28;20704;-56
2022/03/11 06:22:36;;;;;;;9.03;7.07;;;;;;;;;;5091853;28;20236;-56
2022/03/11 06:25:02;;;;;;;9.37;7.17;;;;;;;;;;5082352;28;20269;-55
2022/03/11 06:27:28;;;;;;;9.77;7.90;;;;;;;;;;5065414;28;20666;-56
2022/03/11 06:29:54;;;;;;;8.67;7.73;;;;;;;;;;5087708;28;20256;-54
2022/03/11 06:32:21;;;;;;;11.13;8.03;;;;;;;;;;5063237;28;20184;-55
2022/03/11 06:34:50;;;;;;;10.07;8.57;;;;;;;;;;5062544;28;20175;-55
2022/03/11 06:37:17;;;;;;;9.23;7.60;;;;;;;;;;5085350;28;20175;-55
2022/03/11 06:39:44;;;;;;;12.10;8.13;;;;;;;;;;5080620;28;20661;-55
2022/03/11 06:42:10;;;;;;;10.87;8.20;;;;;;;;;;5054443;28;20180;-55
2022/03/11 06:44:36;;;;;;;10.13;7.80;;;;;;;;;;5068452;28;20229;-54
2022/03/11 06:47:02;;;;;;;12.10;8.83;;;;;;;;;;5059976;28;20172;-54
2022/03/11 06:49:28;;;;;;;9.50;7.30;;;;;;;;;;5084652;28;20259;-54
2022/03/11 06:51:54;;;;;;;10.60;8.73;;;;;;;;;;5088279;28;20186;-55
2022/03/11 06:54:20;;;;;;;11.07;8.27;;;;;;;;;;5074309;28;20196;-57
2022/03/11 06:56:47;;;;;;;11.33;8.47;;;;;;;;;;5089988;28;20202;-55
2022/03/11 06:59:13;;;;;;;9.03;7.97;;;;;;;;;;5085037;28;20211;-55
2022/03/11 07:01:39;;;;;;;12.20;9.23;;;;;;;;;;5080552;28;20180;-56
2022/03/11 07:04:05;;;;;;;8.73;7.67;;;;;;;;;;5088827;28;20262;-54
2022/03/11 07:06:31;;;;;;;11.07;9.00;;;;;;;;;;5069857;28;20603;-55
2022/03/11 07:08:57;;;;;;;11.53;8.63;;;;;;;;;;5066086;28;20652;-55
2022/03/11 07:11:24;;;;;;;11.43;8.17;;;;;;;;;;5060904;28;20792;-55
2022/03/11 07:13:50;;;;;;;15.97;9.73;;;;;;;;;;5081379;28;20230;-55
2022/03/11 07:16:16;;;;;;;11.23;9.03;;;;;;;;;;5079159;28;20179;-55
2022/03/11 07:18:42;;;;;;;14.17;9.30;;;;;;;;;;5087875;28;20505;-55
2022/03/11 07:21:09;;;;;;;10.40;8.93;;;;;;;;;;5086549;28;20176;-56
2022/03/11 07:23:35;;;;;;;10.73;8.07;;;;;;;;;;5066849;28;20191;-55
2022/03/11 07:26:01;;;;;;;11.47;9.03;;;;;;;;;;5085304;28;20178;-55
2022/03/11 07:28:28;;;;;;;11.93;9.00;;;;;;;;;;5060018;28;20264;-55
2022/03/11 07:30:54;;;;;;;11.93;9.30;;;;;;;;;;5090529;28;20276;-57
2022/03/11 07:33:20;;;;;;;12.87;9.00;;;;;;;;;;5084861;28;20661;-55
2022/03/11 07:35:47;;;;;;;13.47;8.90;;;;;;;;;;5059503;28;20311;-55
2022/03/11 07:38:13;;;;;;;12.93;8.73;;;;;;;;;;5078579;28;20171;-55
2022/03/11 07:40:39;;;;;;;11.33;9.30;;;;;;;;;;5089637;28;20233;-56
2022/03/11 07:43:09;;;;;;;11.57;8.73;;;;;;;;;;5071728;28;20175;-56
2022/03/11 07:45:35;;;;;;;11.33;9.27;;;;;;;;;;5069974;28;20187;-58
2022/03/11 07:48:01;;;;;;;10.97;8.73;;;;;;;;;;5051940;28;20179;-56
2022/03/11 07:50:27;;;;;;;11.10;8.80;;;;;;;;;;5082045;28;20568;-55
2022/03/11 07:52:54;;;;;;;10.10;7.97;;;;;;;;;;5088195;28;20184;-55
2022/03/11 07:55:22;;;;;;;14.37;9.57;;;;;;;;;;5072186;28;20212;-58
2022/03/11 07:57:48;;;;;;;11.97;9.37;;;;;;;;;;5069878;28;20657;-56
2022/03/11 08:00:14;;;;;;;13.40;8.83;;;;;;;;;;5052680;28;20601;-55
2022/03/11 08:02:41;;;;;;;12.70;9.47;;;;;;;;;;5080572;28;20685;-56
2022/03/11 08:05:14;;;;;;;11.93;9.43;;;;;;;;;;5071573;28;20244;-55
2022/03/11 08:07:40;;;;;;;10.97;8.73;;;;;;;;;;5087205;28;20183;-56
2022/03/11 08:10:09;;;;;;;15.17;9.87;;;;;;;;;;5090315;28;20263;-56
2022/03/11 08:12:36;;;;;;;12.53;9.37;;;;;;;;;;5070952;28;20240;-55
2022/03/11 08:15:03;;;;;;;13.67;9.87;;;;;;;;;;5071824;28;20553;-55
2022/03/11 08:17:29;;;;;;;11.60;8.53;;;;;;;;;;5089204;28;20188;-55
2022/03/11 08:19:55;;;;;;;10.60;8.70;;;;;;;;;;5071515;28;20658;-56
2022/03/11 08:22:21;;;;;;;12.17;9.33;;;;;;;;;;5085957;28;20532;-57
2022/03/11 08:24:48;;;;;;;12.97;9.10;;;;;;;;;;5070508;28;20776;-56
2022/03/11 08:27:15;;;;;;;11.43;8.60;;;;;;;;;;5052019;28;20553;-55
2022/03/11 08:29:43;;;;;;;12.03;9.23;;;;;;;;;;5067505;28;20612;-56
2022/03/11 08:32:09;;;;;;;10.87;8.37;;;;;;;;;;5082009;28;20220;-55
2022/03/11 08:34:35;;;;;;;13.43;9.97;;;;;;;;;;5071352;28;20179;-56
2022/03/11 08:37:01;;;;;;;10.90;8.70;;;;;;;;;;5069674;28;20179;-55
2022/03/11 08:39:28;;;;;;;12.23;8.97;;;;;;;;;;5086450;28;20300;-56
2022/03/11 08:41:54;;;;;;;11.47;10.20;;;;;;;;;;5050883;28;20177;-56
2022/03/11 08:44:21;;;;;;;12.97;10.07;;;;;;;;;;5087802;28;20184;-55
2022/03/11 08:46:48;;;;;;;12.20;9.23;;;;;;;;;;5084171;28;20180;-55
2022/03/11 08:49:14;;;;;;;11.67;9.07;;;;;;;;;;5089079;28;20732;-56
2022/03/11 08:51:42;;;;;;;11.23;9.10;;;;;;;;;;5087940;28;20278;-55
2022/03/11 08:54:08;;;;;;;13.20;9.07;;;;;;;;;;5070415;28;20180;-55
2022/03/11 08:56:38;;;;;;;13.70;9.30;;;;;;;;;;5055787;28;20207;-55
2022/03/11 08:59:05;;;;;;;10.60;8.83;;;;;;;;;;5070238;28;20286;-55
2022/03/11 09:01:31;;;;;;;11.67;9.23;;;;;;;;;;5070571;28;20172;-58
2022/03/11 09:03:57;;;;;;;14.27;9.20;;;;;;;;;;5088563;28;20182;-56
2022/03/11 09:06:24;;;;;;;13.93;9.93;;;;;;;;;;5078572;28;20266;-55
2022/03/11 09:08:50;;;;;;;14.47;9.20;;;;;;;;;;5069841;28;20191;-55
2022/03/11 09:11:17;;;;;;;12.17;8.90;;;;;;;;;;5068361;28;20218;-57
2022/03/11 09:13:43;;;;;;;13.23;8.97;;;;;;;;;;5058803;28;20191;-55
2022/03/11 09:16:09;;;;;;;12.77;10.10;;;;;;;;;;5075790;28;20184;-54
2022/03/11 09:18:35;;;;;;;11.63;9.47;;;;;;;;;;5061982;28;20271;-56
2022/03/11 09:21:02;;;;;;;11.40;9.17;;;;;;;;;;5085317;28;20171;-55
2022/03/11 09:23:28;;;;;;;12.13;8.87;;;;;;;;;;5069037;28;20233;-55
2022/03/11 09:25:55;;;;;;;12.07;9.77;;;;;;;;;;5082672;28;20270;-55
2022/03/11 09:28:21;;;;;;;11.87;8.60;;;;;;;;;;5087069;28;20200;-55
2022/03/11 09:30:49;;;;;;;11.13;9.03;;;;;;;;;;5082969;28;20214;-55
2022/03/11 09:33:15;;;;;;;12.77;8.20;;;;;;;;;;5062380;28;20210;-55
2022/03/11 09:35:41;;;;;;;11.73;8.77;;;;;;;;;;5088756;28;20176;-56
2022/03/11 09:38:08;;;;;;;10.03;8.73;;;;;;;;;;5078713;28;20196;-57
2022/03/11 09:40:34;;;;;;;10.80;9.17;;;;;;;;;;5068270;28;20207;-54
2022/03/11 09:43:01;;;;;;;11.83;9.57;;;;;;;;;;5075440;28;20229;-56
2022/03/11 09:45:27;;;;;;;14.80;9.63;;;;;;;;;;5070528;28;20179;-55
2022/03/11 09:47:54;;;;;;;14.43;9.77;;;;;;;;;;5082794;28;20253;-56
2022/03/11 09:50:20;;;;;;;12.67;9.87;;;;;;;;;;5084284;28;20630;-56
2022/03/11 09:52:49;;;;;;;11.00;8.60;;;;;;;;;;5068833;28;20191;-55
2022/03/11 09:55:16;;;;;;;13.30;9.23;;;;;;;;;;5065353;28;20213;-55
2022/03/11 09:57:42;;;;;;;11.27;8.53;;;;;;;;;;5069518;28;20207;-57
2022/03/11 10:00:10;;;;;;;14.23;9.90;;;;;;;;;;5085875;28;20610;-55
2022/03/11 10:02:36;;;;;;;11.13;8.93;;;;;;;;;;5068877;28;20659;-56
2022/03/11 10:05:03;;;;;;;11.13;8.40;;;;;;;;;;5070640;28;20184;-56
2022/03/11 10:07:30;;;;;;;11.90;9.33;;;;;;;;;;5055309;28;20183;-56
2022/03/11 10:09:57;;;;;;;12.77;9.40;;;;;;;;;;5055911;28;20599;-55
2022/03/11 10:12:25;;;;;;;10.53;8.70;;;;;;;;;;5089195;28;20219;-56
2022/03/11 10:14:56;;;;;;;11.63;9.63;;;;;;;;;;5062213;28;20176;-56
2022/03/11 10:17:23;;;;;;;11.13;8.97;;;;;;;;;;5068267;28;20188;-56
2022/03/11 10:19:56;;;;;;;22.87;9.97;;;;;;;;;;5091689;28;20770;-55
2022/03/11 10:22:26;;;;;;;12.03;9.33;;;;;;;;;;5063644;28;20191;-57
2022/03/11 10:24:52;;;;;;;11.87;9.33;;;;;;;;;;5074246;28;20190;-55
2022/03/11 10:27:19;;;;;;;12.30;9.53;;;;;;;;;;5089979;28;20679;-55
2022/03/11 10:29:45;;;;;;;12.20;9.70;;;;;;;;;;5037232;28;20242;-55
2022/03/11 10:32:13;;;;;;;12.03;8.73;;;;;;;;;;5053898;28;20183;-55
2022/03/11 10:34:39;;;;;;;12.20;9.37;;;;;;;;;;5065156;28;20211;-56
2022/03/11 10:37:09;;;;;;;12.40;9.20;;;;;;;;;;5083842;28;20199;-55
2022/03/11 10:39:37;;;;;;;11.47;8.90;;;;;;;;;;5087272;28;20295;-56
2022/03/11 10:42:13;;;;;;;15.17;10.10;;;;;;;;;;5071134;28;20176;-57
2022/03/11 10:44:40;;;;;;;11.20;9.17;;;;;;;;;;5070403;28;20204;-56
2022/03/11 10:47:23;;;;;;;12.53;8.77;;;;;;;;;;5086354;28;20180;-55
2022/03/11 10:49:53;;;;;;;11.67;8.67;;;;;;;;;;5071872;28;20200;-56
2022/03/11 10:52:51;;;;;;;14.17;8.43;;;;;;;;;;5070674;28;20686;-56
2022/03/11 10:55:18;;;;;;;10.70;8.70;;;;;;;;;;5067577;28;20223;-56
2022/03/11 10:57:44;;;;;;;12.67;9.23;;;;;;;;;;5074368;28;20199;-56
2022/03/11 11:00:20;;;;;;;12.30;9.60;;;;;;;;;;5091373;28;20233;-57
2022/03/11 11:02:47;;;;;;;13.97;9.87;;;;;;;;;;5072765;28;20178;-56
2022/03/11 11:05:16;;;;;;;11.17;8.63;;;;;;;;;;5079073;28;20192;-57
2022/03/11 11:07:43;;;;;;;11.70;9.07;;;;;;;;;;5067490;28;20694;-58
2022/03/11 11:10:10;;;;;;;11.07;9.50;;;;;;;;;;5090107;28;20267;-56
2022/03/11 11:12:36;;;;;;;12.40;9.47;;;;;;;;;;5088014;28;20249;-57
2022/03/11 11:15:03;;;;;;;11.37;9.03;;;;;;;;;;5087858;28;20270;-56
2022/03/11 11:17:29;;;;;;;11.50;9.37;;;;;;;;;;5088406;28;20671;-57
2022/03/11 11:19:58;;;;;;;14.60;9.13;;;;;;;;;;5088856;28;20231;-56
2022/03/11 11:22:28;;;;;;;11.50;9.43;;;;;;;;;;5085583;28;20188;-55
2022/03/11 11:24:57;;;;;;;13.30;9.07;;;;;;;;;;5090501;28;20219;-57
2022/03/11 11:27:25;;;;;;;10.87;8.73;;;;;;;;;;5089307;28;20184;-57
2022/03/11 11:29:51;;;;;;;12.77;10.10;;;;;;;;;;5083812;28;20226;-56
2022/03/11 11:32:18;;;;;;;13.20;9.17;;;;;;;;;;5083201;28;20586;-56
2022/03/11 11:34:44;;;;;;;13.57;9.60;;;;;;;;;;5062711;28;20220;-55
2022/03/11 11:37:30;;;;;;;11.97;9.17;;;;;;;;;;5077893;28;20180;-56
2022/03/11 11:39:59;;;;;;;11.37;9.40;;;;;;;;;;5062815;28;20221;-57
2022/03/11 11:42:28;;;;;;;11.57;9.13;;;;;;;;;;5059007;28;20270;-58
2022/03/11 11:44:54;;;;;;;11.43;8.77;;;;;;;;;;5084802;28;20658;-57
2022/03/11 11:47:23;;;;;;;11.70;9.67;;;;;;;;;;5060906;28;20184;-58
2022/03/11 11:49:55;;;;;;;11.70;9.07;;;;;;;;;;5077699;28;20187;-56
2022/03/11 11:52:36;;;;;;;9.57;8.57;;;;;;;;;;5079406;28;20187;-57
2022/03/11 11:55:17;;;;;;;10.63;9.07;;;;;;;;;;5083476;28;20181;-57
2022/03/11 11:57:46;;;;;;;10.80;8.70;;;;;;;;;;5069137;28;20702;-57
2022/03/11 12:00:27;;;;;;;11.93;8.60;;;;;;;;;;5070593;28;20221;-57
2022/03/11 12:02:54;;;;;;;10.63;8.37;;;;;;;;;;5070158;28;20626;-56
2022/03/11 12:05:39;;;;;;;12.67;9.27;;;;;;;;;;5087774;28;20188;-56
2022/03/11 12:08:06;;;;;;;12.83;8.53;;;;;;;;;;5067604;28;20670;-57
2022/03/11 12:10:34;;;;;;;13.17;9.60;;;;;;;;;;5070771;28;20728;-56
2022/03/11 12:13:02;;;;;;;10.97;8.97;;;;;;;;;;5085752;28;20180;-58
2022/03/11 12:15:32;;;;;;;10.17;8.33;;;;;;;;;;5084225;28;20635;-57
2022/03/11 12:18:02;;;;;;;10.20;9.10;;;;;;;;;;5087228;28;20177;-57
2022/03/11 12:20:31;;;;;;;13.30;8.83;;;;;;;;;;5084963;28;20211;-57
2022/03/11 12:22:58;;;;;;;9.70;8.40;;;;;;;;;;5079948;28;20700;-57
2022/03/11 12:25:26;;;;;;;10.57;8.23;;;;;;;;;;5081907;28;20320;-57
2022/03/11 12:28:04;;;;;;;10.67;9.17;;;;;;;;;;5061512;28;20580;-58
2022/03/11 12:30:32;;;;;;;10.07;8.20;;;;;;;;;;5078279;28;20195;-58
2022/03/11 12:33:03;;;;;;;12.20;8.67;;;;;;;;;;5066267;28;20178;-57
2022/03/11 12:35:30;;;;;;;9.77;8.53;;;;;;;;;;5077491;28;20992;-58
2022/03/11 12:37:56;;;;;;;11.40;9.30;;;;;;;;;;5062434;28;20527;-58
2022/03/11 12:40:22;;;;;;;10.20;8.43;;;;;;;;;;5075964;28;20195;-56
2022/03/11 12:42:49;;;;;;;11.70;8.53;;;;;;;;;;5076830;28;20236;-56
2022/03/11 12:45:34;;;;;;;15.33;9.30;;;;;;;;;;5052194;28;20186;-56
2022/03/11 12:48:00;;;;;;;10.03;8.70;;;;;;;;;;5063826;28;20181;-56
2022/03/11 12:50:27;;;;;;;13.63;8.67;;;;;;;;;;5062107;28;20192;-57
2022/03/11 12:52:56;;;;;;;14.93;9.23;;;;;;;;;;5080765;28;20563;-57
2022/03/11 12:55:25;;;;;;;10.90;8.83;;;;;;;;;;5061975;28;20196;-56
2022/03/11 12:57:55;;;;;;;10.23;8.73;;;;;;;;;;5082574;28;20211;-57
2022/03/11 13:00:21;;;;;;;10.77;8.60;;;;;;;;;;5087654;28;20278;-57
2022/03/11 13:02:51;;;;;;;10.13;9.03;;;;;;;;;;5081505;28;20231;-55
2022/03/11 13:05:21;;;;;;;10.80;9.47;;;;;;;;;;5071777;28;20180;-57
2022/03/11 13:07:48;;;;;;;10.47;8.37;;;;;;;;;;5099460;28;20181;-56
2022/03/11 13:10:21;;;;;;;10.17;9.10;;;;;;;;;;5089290;28;20207;-55
2022/03/11 13:12:50;;;;;;;10.67;8.77;;;;;;;;;;5067713;28;20637;-56
2022/03/11 13:15:22;;;;;;;10.67;9.30;;;;;;;;;;5061835;28;20294;-58
2022/03/11 13:17:51;;;;;;;9.97;8.63;;;;;;;;;;5068739;28;20180;-56
2022/03/11 13:20:26;;;;;;;11.60;9.90;;;;;;;;;;5052469;28;20446;-58
2022/03/11 13:22:52;;;;;;;9.13;8.13;;;;;;;;;;5054639;28;20609;-57
2022/03/11 13:25:28;;;;;;;10.80;9.13;;;;;;;;;;5057928;28;20178;-56
2022/03/11 13:27:55;;;;;;;9.70;8.17;;;;;;;;;;5075087;28;20204;-56
2022/03/11 13:30:35;;;;;;;9.23;8.33;;;;;;;;;;5065428;28;20263;-56
2022/03/11 13:33:12;;;;;;;10.07;8.43;;;;;;;;;;5076866;28;20203;-55
2022/03/11 13:35:41;;;;;;;10.13;7.93;;;;;;;;;;5062815;28;20275;-56
2022/03/11 13:38:08;;;;;;;9.70;8.23;;;;;;;;;;5057389;28;20280;-57
2022/03/11 13:40:34;;;;;;;10.50;8.17;;;;;;;;;;5067341;28;20204;-56
2022/03/11 13:43:02;;;;;;;10.87;8.30;;;;;;;;;;5087848;28;20177;-56
2022/03/11 13:45:29;;;;;;;9.73;8.17;;;;;;;;;;5062823;28;20924;-56
2022/03/11 13:48:06;;;;;;;9.53;7.70;;;;;;;;;;5084995;28;20705;-58
2022/03/11 13:50:32;;;;;;;10.93;8.20;;;;;;;;;;5079134;28;20269;-56
2022/03/11 13:52:59;;;;;;;9.73;7.97;;;;;;;;;;5055670;28;20194;-54
2022/03/11 13:55:38;;;;;;;9.23;8.23;;;;;;;;;;5066234;28;20180;-55
2022/03/11 13:58:21;;;;;;;11.20;8.43;;;;;;;;;;5069384;28;20200;-55
2022/03/11 14:00:51;;;;;;;11.87;7.97;;;;;;;;;;5060167;28;20691;-59
2022/03/11 14:03:21;;;;;;;9.20;7.93;;;;;;;;;;5057299;28;20168;-56
2022/03/11 14:05:48;;;;;;;9.50;7.53;;;;;;;;;;5078079;28;20268;-59
2022/03/11 14:08:25;;;;;;;9.43;8.37;;;;;;;;;;5051702;28;20177;-56
2022/03/11 14:10:52;;;;;;;8.67;7.43;;;;;;;;;;5070016;28;20168;-56
2022/03/11 14:13:25;;;;;;;10.10;8.80;;;;;;;;;;5074812;28;20210;-56
2022/03/11 14:15:52;;;;;;;12.90;9.07;;;;;;;;;;5080074;28;20203;-56
2022/03/11 14:18:25;;;;;;;9.87;7.97;;;;;;;;;;5069232;28;20181;-59
2022/03/11 14:20:52;;;;;;;11.17;9.33;;;;;;;;;;5057277;28;20534;-58
2022/03/11 14:23:20;;;;;;;9.80;8.73;;;;;;;;;;5083755;28;20918;-56
2022/03/11 14:25:47;;;;;;;13.17;9.10;;;;;;;;;;5083267;28;20206;-56
2022/03/11 14:28:13;;;;;;;9.50;7.47;;;;;;;;;;5080374;28;20701;-58
2022/03/11 14:30:39;;;;;;;9.17;8.00;;;;;;;;;;5070141;28;20843;-57
2022/03/11 14:33:06;;;;;;;11.23;9.27;;;;;;;;;;5085986;28;20649;-56
2022/03/11 14:35:32;;;;;;;10.80;8.90;;;;;;;;;;5081688;28;20761;-56
2022/03/11 14:38:01;;;;;;;13.13;9.00;;;;;;;;;;5069394;28;20674;-57